sensor_id;sensor_type;location;lat;lon;timestamp;pressure;altitude;pressure_sealevel;temperature;humidity
70902;BME280;58548;47.210;8.618;2022-12-10T00:01:42;92637.16;;;10.90;39.35
70902;BME280;58548;47.210;8.618;2022-12-10T00:04:10;92698.03;;;11.26;39.50
70902;BME280;58548;47.210;8.618;2022-12-10T00:06:37;92641.81;;;11.00;39.11
70902;BME280;58548;47.210;8.618;2022-12-10T00:09:10;92660.56;;;11.09;39.53
70902;BME280;58548;47.210;8.618;2022-12-10T00:11:38;92686.13;;;11.30;39.65
70902;BME280;58548;47.210;8.618;2022-12-10T00:14:04;92666.59;;;11.21;39.75
70902;BME280;58548;47.210;8.618;2022-12-10T00:16:36;92689.19;;;11.27;39.53
70902;BME280;58548;47.210;8.618;2022-12-10T00:19:05;92628.06;;;10.93;39.40
70902;BME280;58548;47.210;8.618;2022-12-10T00:21:35;92638.31;;;10.94;39.39
70902;BME280;58548;47.210;8.618;2022-12-10T00:24:04;92692.81;;;11.26;39.84
70902;BME280;58548;47.210;8.618;2022-12-10T00:26:42;92665.56;;;11.22;39.80
70902;BME280;58548;47.210;8.618;2022-12-10T00:29:14;92683.06;;;11.34;39.72
70902;BME280;58548;47.210;8.618;2022-12-10T00:31:43;92620.22;;;11.05;39.79
70902;BME280;58548;47.210;8.618;2022-12-10T00:34:10;92668.25;;;11.39;39.52
70902;BME280;58548;47.210;8.618;2022-12-10T00:36:43;92654.06;;;11.35;39.30
70902;BME280;58548;47.210;8.618;2022-12-10T00:39:14;92635.31;;;11.26;39.77
70902;BME280;58548;47.210;8.618;2022-12-10T00:41:40;92665.75;;;11.56;39.23
70902;BME280;58548;47.210;8.618;2022-12-10T00:44:06;92660.06;;;11.59;39.59
70902;BME280;58548;47.210;8.618;2022-12-10T00:46:32;92614.88;;;11.23;39.57
70902;BME280;58548;47.210;8.618;2022-12-10T00:48:59;92680.31;;;11.52;39.52
70902;BME280;58548;47.210;8.618;2022-12-10T00:51:26;92664.44;;;11.30;40.07
70902;BME280;58548;47.210;8.618;2022-12-10T00:53:55;92659.88;;;11.25;40.08
70902;BME280;58548;47.210;8.618;2022-12-10T00:56:27;92612.97;;;10.95;40.32
70902;BME280;58548;47.210;8.618;2022-12-10T00:58:54;92674.63;;;11.31;39.99
70902;BME280;58548;47.210;8.618;2022-12-10T01:01:29;92679.41;;;11.35;39.75
70902;BME280;58548;47.210;8.618;2022-12-10T01:04:04;92659.88;;;11.25;40.21
70902;BME280;58548;47.210;8.618;2022-12-10T01:06:46;92678.16;;;11.37;39.69
70902;BME280;58548;47.210;8.618;2022-12-10T01:09:15;92657.16;;;11.20;39.63
70902;BME280;58548;47.210;8.618;2022-12-10T01:11:44;92610.59;;;10.93;39.70
70902;BME280;58548;47.210;8.618;2022-12-10T01:14:15;92659.41;;;11.28;40.08
70902;BME280;58548;47.210;8.618;2022-12-10T01:16:44;92674.97;;;11.35;39.70
70902;BME280;58548;47.210;8.618;2022-12-10T01:19:11;92682.34;;;11.50;40.16
70902;BME280;58548;47.210;8.618;2022-12-10T01:21:37;92682.34;;;11.50;39.68
70902;BME280;58548;47.210;8.618;2022-12-10T01:24:06;92708.94;;;11.47;40.25
70902;BME280;58548;47.210;8.618;2022-12-10T01:26:34;92650.91;;;11.09;40.26
70902;BME280;58548;47.210;8.618;2022-12-10T01:29:04;92699.50;;;11.46;39.81
70902;BME280;58548;47.210;8.618;2022-12-10T01:31:35;92696.25;;;11.39;39.66
70902;BME280;58548;47.210;8.618;2022-12-10T01:34:06;92658.50;;;11.11;40.09
70902;BME280;58548;47.210;8.618;2022-12-10T01:36:39;92689.88;;;11.35;39.89
70902;BME280;58548;47.210;8.618;2022-12-10T01:39:10;92702.81;;;11.53;39.37
70902;BME280;58548;47.210;8.618;2022-12-10T01:41:41;92700.53;;;11.45;39.58
70902;BME280;58548;47.210;8.618;2022-12-10T01:46:42;92644.75;;;11.15;39.63
70902;BME280;58548;47.210;8.618;2022-12-10T01:49:32;92710.97;;;11.57;39.94
70902;BME280;58548;47.210;8.618;2022-12-10T01:52:07;92719.63;;;11.57;39.24
70902;BME280;58548;47.210;8.618;2022-12-10T01:54:39;92714.28;;;11.52;39.68
70902;BME280;58548;47.210;8.618;2022-12-10T01:57:17;92693.06;;;11.25;39.44
70902;BME280;58548;47.210;8.618;2022-12-10T01:59:47;92713.97;;;11.37;39.82
70902;BME280;58548;47.210;8.618;2022-12-10T02:05:08;92715.69;;;11.43;39.86
70902;BME280;58548;47.210;8.618;2022-12-10T02:15:18;92712.56;;;11.46;39.15
70902;BME280;58548;47.210;8.618;2022-12-10T02:17:53;92656.94;;;11.10;39.82
70902;BME280;58548;47.210;8.618;2022-12-10T02:20:32;92708.94;;;11.47;39.57
70902;BME280;58548;47.210;8.618;2022-12-10T02:26:02;92710.78;;;11.35;39.34
70902;BME280;58548;47.210;8.618;2022-12-10T02:29:10;92658.97;;;11.08;39.77
70902;BME280;58548;47.210;8.618;2022-12-10T02:32:01;92706.25;;;11.42;40.11
70902;BME280;58548;47.210;8.618;2022-12-10T02:34:38;92690.56;;;11.42;40.08
70902;BME280;58548;47.210;8.618;2022-12-10T02:37:22;92631.25;;;11.07;39.72
70902;BME280;58548;47.210;8.618;2022-12-10T02:39:58;92678.97;;;11.38;39.61
70902;BME280;58548;47.210;8.618;2022-12-10T02:42:33;92642.84;;;11.23;39.63
70902;BME280;58548;47.210;8.618;2022-12-10T02:45:04;92637.38;;;11.24;39.12
70902;BME280;58548;47.210;8.618;2022-12-10T02:47:34;92612.75;;;11.08;39.51
70902;BME280;58548;47.210;8.618;2022-12-10T02:50:01;92624.66;;;11.16;39.49
70902;BME280;58548;47.210;8.618;2022-12-10T02:52:27;92684.63;;;11.58;39.68
70902;BME280;58548;47.210;8.618;2022-12-10T02:54:56;92627.16;;;11.23;39.58
70902;BME280;58548;47.210;8.618;2022-12-10T03:05:59;92683.47;;;11.54;39.37
70902;BME280;58548;47.210;8.618;2022-12-10T03:08:45;92604.91;;;11.08;39.53
70902;BME280;58548;47.210;8.618;2022-12-10T03:11:19;92678.00;;;11.56;39.07
70902;BME280;58548;47.210;8.618;2022-12-10T03:16:36;92642.00;;;11.46;39.35
70902;BME280;58548;47.210;8.618;2022-12-10T03:19:11;92607.84;;;11.12;39.23
70902;BME280;58548;47.210;8.618;2022-12-10T03:21:44;92655.56;;;11.43;39.41
70902;BME280;58548;47.210;8.618;2022-12-10T03:24:14;92614.22;;;11.16;39.02
70902;BME280;58548;47.210;8.618;2022-12-10T03:26:47;92663.94;;;11.45;39.27
70902;BME280;58548;47.210;8.618;2022-12-10T03:29:31;92673.16;;;11.48;38.69
70902;BME280;58548;47.210;8.618;2022-12-10T03:32:02;92651.69;;;11.34;39.57
70902;BME280;58548;47.210;8.618;2022-12-10T03:34:29;92663.16;;;11.44;39.55
70902;BME280;58548;47.210;8.618;2022-12-10T03:36:55;92605.50;;;11.10;39.52
70902;BME280;58548;47.210;8.618;2022-12-10T03:39:23;92624.31;;;11.12;39.48
70902;BME280;58548;47.210;8.618;2022-12-10T03:41:52;92668.63;;;11.43;39.28
70902;BME280;58548;47.210;8.618;2022-12-10T03:44:37;92669.50;;;11.49;39.24
70902;BME280;58548;47.210;8.618;2022-12-10T03:47:08;92622.06;;;11.16;39.02
70902;BME280;58548;47.210;8.618;2022-12-10T03:49:35;92667.13;;;11.47;39.31
70902;BME280;58548;47.210;8.618;2022-12-10T03:52:02;92609.56;;;11.06;38.81
70902;BME280;58548;47.210;8.618;2022-12-10T03:54:30;92615.69;;;11.12;38.83
70902;BME280;58548;47.210;8.618;2022-12-10T03:56:56;92670.44;;;11.42;39.32
70902;BME280;58548;47.210;8.618;2022-12-10T03:59:24;92624.44;;;11.06;39.53
70902;BME280;58548;47.210;8.618;2022-12-10T04:01:53;92673.75;;;11.38;38.85
70902;BME280;58548;47.210;8.618;2022-12-10T04:04:19;92675.66;;;11.42;39.53
70902;BME280;58548;47.210;8.618;2022-12-10T04:06:45;92627.84;;;11.06;39.27
70902;BME280;58548;47.210;8.618;2022-12-10T04:09:15;92626.59;;;11.09;39.48
70902;BME280;58548;47.210;8.618;2022-12-10T04:11:42;92656.69;;;11.35;39.24
70902;BME280;58548;47.210;8.618;2022-12-10T04:14:11;92669.66;;;11.42;39.17
70902;BME280;58548;47.210;8.618;2022-12-10T04:16:56;92651.69;;;11.34;39.20
70902;BME280;58548;47.210;8.618;2022-12-10T04:19:25;92620.47;;;11.15;39.29
70902;BME280;58548;47.210;8.618;2022-12-10T04:21:53;92629.44;;;11.19;39.24
70902;BME280;58548;47.210;8.618;2022-12-10T04:24:40;92648.50;;;11.31;39.41
70902;BME280;58548;47.210;8.618;2022-12-10T04:27:39;92628.19;;;11.22;39.10
70902;BME280;58548;47.210;8.618;2022-12-10T04:30:10;92621.94;;;11.11;39.35
70902;BME280;58548;47.210;8.618;2022-12-10T04:32:36;92636.34;;;11.25;39.43
70902;BME280;58548;47.210;8.618;2022-12-10T04:35:03;92662.81;;;11.41;38.92
70902;BME280;58548;47.210;8.618;2022-12-10T04:37:30;92611.25;;;11.24;38.96
70902;BME280;58548;47.210;8.618;2022-12-10T04:39:58;92650.78;;;11.40;38.99
70902;BME280;58548;47.210;8.618;2022-12-10T04:42:26;92657.59;;;11.41;39.26
70902;BME280;58548;47.210;8.618;2022-12-10T04:44:52;92583.78;;;10.86;39.27
70902;BME280;58548;47.210;8.618;2022-12-10T04:47:20;92683.38;;;11.37;38.91
70902;BME280;58548;47.210;8.618;2022-12-10T04:49:46;92685.22;;;11.37;39.42
70902;BME280;58548;47.210;8.618;2022-12-10T04:52:15;92627.63;;;11.08;39.38
70902;BME280;58548;47.210;8.618;2022-12-10T04:54:42;92688.59;;;11.37;38.72
70902;BME280;58548;47.210;8.618;2022-12-10T04:57:10;92618.44;;;10.93;39.13
70902;BME280;58548;47.210;8.618;2022-12-10T04:59:39;92641.69;;;11.07;39.42
70902;BME280;58548;47.210;8.618;2022-12-10T05:02:08;92684.19;;;11.38;39.34
70902;BME280;58548;47.210;8.618;2022-12-10T05:04:35;92629.91;;;10.92;38.96
70902;BME280;58548;47.210;8.618;2022-12-10T05:07:03;92681.34;;;11.27;39.09
70902;BME280;58548;47.210;8.618;2022-12-10T05:09:31;92611.06;;;10.90;39.24
70902;BME280;58548;47.210;8.618;2022-12-10T05:11:59;92605.63;;;10.80;39.45
70902;BME280;58548;47.210;8.618;2022-12-10T05:14:27;92620.81;;;10.83;39.45
70902;BME280;58548;47.210;8.618;2022-12-10T05:16:55;92673.28;;;11.17;39.60
70902;BME280;58548;47.210;8.618;2022-12-10T05:19:24;92680.56;;;11.15;39.15
70902;BME280;58548;47.210;8.618;2022-12-10T05:21:58;92658.75;;;10.97;39.32
70902;BME280;58548;47.210;8.618;2022-12-10T05:24:42;92688.16;;;11.16;39.15
70902;BME280;58548;47.210;8.618;2022-12-10T05:27:08;92627.50;;;10.67;39.10
70902;BME280;58548;47.210;8.618;2022-12-10T05:29:36;92695.56;;;11.20;39.69
70902;BME280;58548;47.210;8.618;2022-12-10T05:32:05;92675.31;;;10.91;39.28
70902;BME280;58548;47.210;8.618;2022-12-10T05:34:32;92712.38;;;11.12;39.94
70902;BME280;58548;47.210;8.618;2022-12-10T05:36:58;92657.03;;;10.79;39.32
70902;BME280;58548;47.210;8.618;2022-12-10T05:39:23;92716.13;;;11.16;39.44
70902;BME280;58548;47.210;8.618;2022-12-10T05:41:49;92699.19;;;11.07;39.44
70902;BME280;58548;47.210;8.618;2022-12-10T05:44:15;92721.56;;;11.14;39.78
70902;BME280;58548;47.210;8.618;2022-12-10T05:46:41;92652.94;;;10.71;39.72
70902;BME280;58548;47.210;8.618;2022-12-10T05:49:07;92660.31;;;10.75;39.64
70902;BME280;58548;47.210;8.618;2022-12-10T05:51:37;92702.25;;;11.04;39.43
70902;BME280;58548;47.210;8.618;2022-12-10T05:54:04;92702.38;;;11.09;38.90
70902;BME280;58548;47.210;8.618;2022-12-10T05:56:32;92708.84;;;11.18;38.93
70902;BME280;58548;47.210;8.618;2022-12-10T05:59:04;92724.09;;;11.21;39.29
70902;BME280;58548;47.210;8.618;2022-12-10T06:01:33;92610.13;;;10.49;39.15
70902;BME280;58548;47.210;8.618;2022-12-10T06:04:01;92649.88;;;10.75;39.05
70902;BME280;58548;47.210;8.618;2022-12-10T06:06:34;92692.13;;;10.95;39.33
70902;BME280;58548;47.210;8.618;2022-12-10T06:09:07;92719.41;;;11.11;39.49
70902;BME280;58548;47.210;8.618;2022-12-10T06:11:33;92731.91;;;11.21;39.13
70902;BME280;58548;47.210;8.618;2022-12-10T06:14:01;92721.09;;;11.18;39.13
70902;BME280;58548;47.210;8.618;2022-12-10T06:16:28;92716.44;;;11.08;39.55
70902;BME280;58548;47.210;8.618;2022-12-10T06:18:55;92681.91;;;10.94;38.78
70902;BME280;58548;47.210;8.618;2022-12-10T06:21:22;92713.50;;;11.16;38.78
70902;BME280;58548;47.210;8.618;2022-12-10T06:23:51;92670.22;;;10.84;38.94
70902;BME280;58548;47.210;8.618;2022-12-10T06:26:23;92722.81;;;11.12;39.50
70902;BME280;58548;47.210;8.618;2022-12-10T06:28:50;92730.31;;;11.08;39.54
70902;BME280;58548;47.210;8.618;2022-12-10T06:31:17;92733.72;;;11.09;39.12
70902;BME280;58548;47.210;8.618;2022-12-10T06:33:46;92721.91;;;10.94;39.35
70902;BME280;58548;47.210;8.618;2022-12-10T06:36:15;92678.47;;;10.69;38.88
70902;BME280;58548;47.210;8.618;2022-12-10T06:38:46;92705.06;;;10.90;39.17
70902;BME280;58548;47.210;8.618;2022-12-10T06:41:15;92701.09;;;10.88;39.36
70902;BME280;58548;47.210;8.618;2022-12-10T06:43:42;92712.22;;;10.95;38.87
70902;BME280;58548;47.210;8.618;2022-12-10T06:46:15;92742.91;;;11.23;38.71
70902;BME280;58548;47.210;8.618;2022-12-10T06:48:42;92746.56;;;11.22;39.00
70902;BME280;58548;47.210;8.618;2022-12-10T06:51:10;92643.38;;;10.53;39.44
70902;BME280;58548;47.210;8.618;2022-12-10T06:53:38;92712.00;;;10.96;39.41
70902;BME280;58548;47.210;8.618;2022-12-10T06:56:07;92700.28;;;10.87;39.10
70902;BME280;58548;47.210;8.618;2022-12-10T06:58:36;92749.97;;;11.23;39.05
70902;BME280;58548;47.210;8.618;2022-12-10T07:01:09;92697.25;;;10.90;38.75
70902;BME280;58548;47.210;8.618;2022-12-10T07:03:39;92705.41;;;10.94;39.01
70902;BME280;58548;47.210;8.618;2022-12-10T07:06:10;92739.97;;;11.20;39.57
70902;BME280;58548;47.210;8.618;2022-12-10T07:08:40;92755.09;;;11.29;39.40
70902;BME280;58548;47.210;8.618;2022-12-10T07:11:11;92724.28;;;11.20;38.73
70902;BME280;58548;47.210;8.618;2022-12-10T07:13:37;92696.44;;;11.01;39.01
70902;BME280;58548;47.210;8.618;2022-12-10T07:16:27;92756.00;;;11.47;38.86
70902;BME280;58548;47.210;8.618;2022-12-10T07:18:56;92760.88;;;11.43;38.57
70902;BME280;58548;47.210;8.618;2022-12-10T07:21:39;92745.66;;;11.28;39.23
70902;BME280;58548;47.210;8.618;2022-12-10T07:24:14;92771.47;;;11.37;38.88
70902;BME280;58548;47.210;8.618;2022-12-10T07:26:42;92661.22;;;10.68;39.07
70902;BME280;58548;47.210;8.618;2022-12-10T07:29:16;92696.66;;;10.88;39.20
70902;BME280;58548;47.210;8.618;2022-12-10T07:31:47;92749.63;;;11.19;39.10
70902;BME280;58548;47.210;8.618;2022-12-10T07:34:14;92723.72;;;11.06;39.13
70902;BME280;58548;47.210;8.618;2022-12-10T07:36:43;92698.25;;;10.89;39.18
70902;BME280;58548;47.210;8.618;2022-12-10T07:39:11;92768.50;;;11.45;38.66
70902;BME280;58548;47.210;8.618;2022-12-10T07:41:52;92722.47;;;11.08;39.25
70902;BME280;58548;47.210;8.618;2022-12-10T07:44:23;92768.97;;;11.42;39.13
70902;BME280;58548;47.210;8.618;2022-12-10T07:46:56;92779.88;;;11.63;38.51
70902;BME280;58548;47.210;8.618;2022-12-10T07:49:24;92722.38;;;11.27;38.71
70902;BME280;58548;47.210;8.618;2022-12-10T07:51:55;92778.19;;;11.56;38.17
70902;BME280;58548;47.210;8.618;2022-12-10T07:54:21;92744.19;;;11.32;38.29
70902;BME280;58548;47.210;8.618;2022-12-10T07:56:47;92793.19;;;11.61;38.36
70902;BME280;58548;47.210;8.618;2022-12-10T07:59:13;92681.44;;;10.85;38.31
70902;BME280;58548;47.210;8.618;2022-12-10T08:01:42;92739.63;;;11.16;38.68
70902;BME280;58548;47.210;8.618;2022-12-10T08:04:12;92798.97;;;11.51;38.62
70902;BME280;58548;47.210;8.618;2022-12-10T08:06:38;92755.97;;;11.23;38.46
70902;BME280;58548;47.210;8.618;2022-12-10T08:09:06;92755.31;;;11.16;38.73
70902;BME280;58548;47.210;8.618;2022-12-10T08:11:32;92741.91;;;11.00;38.27
70902;BME280;58548;47.210;8.618;2022-12-10T08:13:58;92699.13;;;10.71;38.46
70902;BME280;58548;47.210;8.618;2022-12-10T08:16:27;92752.44;;;11.06;38.30
70902;BME280;58548;47.210;8.618;2022-12-10T08:18:59;92815.56;;;11.45;38.73
70902;BME280;58548;47.210;8.618;2022-12-10T08:21:32;92814.88;;;11.38;38.33
70902;BME280;58548;47.210;8.618;2022-12-10T08:24:02;92830.91;;;11.41;38.54
70902;BME280;58548;47.210;8.618;2022-12-10T08:26:32;92758.66;;;10.93;38.39
70902;BME280;58548;47.210;8.618;2022-12-10T08:28:58;92831.72;;;11.42;38.33
70902;BME280;58548;47.210;8.618;2022-12-10T08:31:25;92836.38;;;11.40;38.54
70902;BME280;58548;47.210;8.618;2022-12-10T08:33:52;92790.75;;;11.12;38.14
70902;BME280;58548;47.210;8.618;2022-12-10T08:36:19;92827.50;;;11.41;38.96
70902;BME280;58548;47.210;8.618;2022-12-10T08:38:48;92786.41;;;11.06;38.90
70902;BME280;58548;47.210;8.618;2022-12-10T08:41:19;92821.88;;;11.25;38.57
70902;BME280;58548;47.210;8.618;2022-12-10T08:43:46;92836.22;;;11.35;38.51
70902;BME280;58548;47.210;8.618;2022-12-10T08:46:16;92785.97;;;11.09;38.21
70902;BME280;58548;47.210;8.618;2022-12-10T08:48:44;92840.34;;;11.42;38.46
70902;BME280;58548;47.210;8.618;2022-12-10T08:51:20;92842.53;;;11.57;38.12
70902;BME280;58548;47.210;8.618;2022-12-10T08:53:49;92857.19;;;11.58;37.70
70902;BME280;58548;47.210;8.618;2022-12-10T08:56:17;92827.03;;;11.32;38.07
70902;BME280;58548;47.210;8.618;2022-12-10T08:58:43;92775.28;;;10.98;38.44
70902;BME280;58548;47.210;8.618;2022-12-10T09:01:14;92849.88;;;11.37;38.34
70902;BME280;58548;47.210;8.618;2022-12-10T09:03:40;92813.56;;;11.16;37.80
70902;BME280;58548;47.210;8.618;2022-12-10T09:06:12;92822.81;;;11.19;37.78
70902;BME280;58548;47.210;8.618;2022-12-10T09:08:40;92874.47;;;11.59;38.40
70902;BME280;58548;47.210;8.618;2022-12-10T09:11:12;92843.38;;;11.27;38.06
70902;BME280;58548;47.210;8.618;2022-12-10T09:13:38;92825.28;;;11.14;37.84
70902;BME280;58548;47.210;8.618;2022-12-10T09:16:09;92889.25;;;11.54;38.39
70902;BME280;58548;47.210;8.618;2022-12-10T09:18:38;92873.59;;;11.35;38.48
70902;BME280;58548;47.210;8.618;2022-12-10T09:21:05;92883.41;;;11.40;37.99
70902;BME280;58548;47.210;8.618;2022-12-10T09:23:31;92833.00;;;11.09;38.32
70902;BME280;58548;47.210;8.618;2022-12-10T09:25:59;92905.59;;;11.49;38.19
70902;BME280;58548;47.210;8.618;2022-12-10T09:28:25;92899.56;;;11.49;37.86
70902;BME280;58548;47.210;8.618;2022-12-10T09:30:58;92913.13;;;11.57;38.16
70902;BME280;58548;47.210;8.618;2022-12-10T09:33:25;92912.09;;;11.58;38.17
70902;BME280;58548;47.210;8.618;2022-12-10T09:35:54;92914.28;;;11.61;38.33
70902;BME280;58548;47.210;8.618;2022-12-10T09:38:20;92924.38;;;11.70;38.15
70902;BME280;58548;47.210;8.618;2022-12-10T09:41:05;92917.78;;;11.67;38.30
70902;BME280;58548;47.210;8.618;2022-12-10T09:52:22;92939.50;;;11.68;37.76
70902;BME280;58548;47.210;8.618;2022-12-10T09:54:55;92939.06;;;11.71;37.24
70902;BME280;58548;47.210;8.618;2022-12-10T09:57:38;92937.72;;;11.80;37.29
70902;BME280;58548;47.210;8.618;2022-12-10T10:00:25;92917.34;;;11.70;37.16
70902;BME280;58548;47.210;8.618;2022-12-10T10:02:58;92869.09;;;11.42;36.93
70902;BME280;58548;47.210;8.618;2022-12-10T10:05:41;92932.63;;;11.85;37.06
70902;BME280;58548;47.210;8.618;2022-12-10T10:08:31;92939.41;;;11.86;37.09
70902;BME280;58548;47.210;8.618;2022-12-10T10:11:04;92932.28;;;11.94;36.75
70902;BME280;58548;47.210;8.618;2022-12-10T10:16:32;92932.28;;;11.94;36.32
70902;BME280;58548;47.210;8.618;2022-12-10T10:19:01;92942.72;;;11.94;36.56
70902;BME280;58548;47.210;8.618;2022-12-10T10:21:48;92948.69;;;12.01;36.27
70902;BME280;58548;47.210;8.618;2022-12-10T10:24:21;92905.88;;;11.71;36.88
70902;BME280;58548;47.210;8.618;2022-12-10T10:26:51;92948.41;;;11.90;36.81
70902;BME280;58548;47.210;8.618;2022-12-10T10:29:23;92890.47;;;11.51;36.42
70902;BME280;58548;47.210;8.618;2022-12-10T10:32:21;92952.34;;;12.00;35.92
70902;BME280;58548;47.210;8.618;2022-12-10T10:34:58;92930.78;;;11.86;36.52
70902;BME280;58548;47.210;8.618;2022-12-10T10:40:03;92951.59;;;11.92;36.22
70902;BME280;58548;47.210;8.618;2022-12-10T10:45:01;92937.50;;;11.94;35.91
70902;BME280;58548;47.210;8.618;2022-12-10T10:47:32;92948.59;;;12.07;35.82
70902;BME280;58548;47.210;8.618;2022-12-10T10:50:00;92951.06;;;12.02;35.64
70902;BME280;58548;47.210;8.618;2022-12-10T10:52:36;92893.53;;;11.48;35.65
70902;BME280;58548;47.210;8.618;2022-12-10T10:55:08;92922.78;;;11.69;36.20
70902;BME280;58548;47.210;8.618;2022-12-10T10:57:51;92936.13;;;11.79;36.05
70902;BME280;58548;47.210;8.618;2022-12-10T11:00:23;92891.94;;;11.47;35.71
70902;BME280;58548;47.210;8.618;2022-12-10T11:02:52;92955.22;;;11.80;35.75
70902;BME280;58548;47.210;8.618;2022-12-10T11:05:29;92940.84;;;11.58;36.09
70902;BME280;58548;47.210;8.618;2022-12-10T11:08:16;92949.75;;;11.69;36.05
70902;BME280;58548;47.210;8.618;2022-12-10T11:10:52;92929.22;;;11.42;36.20
70902;BME280;58548;47.210;8.618;2022-12-10T11:13:29;92930.13;;;11.48;36.21
70902;BME280;58548;47.210;8.618;2022-12-10T11:23:44;92919.06;;;11.34;36.22
70902;BME280;58548;47.210;8.618;2022-12-10T11:35:11;92921.03;;;11.08;36.66
70902;BME280;58548;47.210;8.618;2022-12-10T11:43:09;92941.13;;;11.08;36.32
70902;BME280;58548;47.210;8.618;2022-12-10T11:45:54;92982.75;;;11.40;36.21
70902;BME280;58548;47.210;8.618;2022-12-10T11:56:58;92986.66;;;11.61;36.16
70902;BME280;58548;47.210;8.618;2022-12-10T12:10:23;92991.75;;;11.56;35.67
70902;BME280;58548;47.210;8.618;2022-12-10T12:13:04;92984.16;;;11.54;35.31
70902;BME280;58548;47.210;8.618;2022-12-10T12:21:27;92975.34;;;11.37;35.65
70902;BME280;58548;47.210;8.618;2022-12-10T12:24:02;93016.53;;;11.53;35.90
70902;BME280;58548;47.210;8.618;2022-12-10T12:31:39;93014.41;;;11.31;35.84
70902;BME280;58548;47.210;8.618;2022-12-10T12:34:29;93026.91;;;11.29;35.64
70902;BME280;58548;47.210;8.618;2022-12-10T12:36:57;93013.75;;;11.18;35.53
70902;BME280;58548;47.210;8.618;2022-12-10T12:45:12;93033.44;;;11.20;36.21
70902;BME280;58548;47.210;8.618;2022-12-10T12:52:58;92984.53;;;10.71;35.92
70902;BME280;58548;47.210;8.618;2022-12-10T12:55:32;93040.50;;;11.01;36.32
70902;BME280;58548;47.210;8.618;2022-12-10T12:58:19;93043.75;;;10.96;36.70
70902;BME280;58548;47.210;8.618;2022-12-10T13:00:52;93041.56;;;10.93;36.78
70902;BME280;58548;47.210;8.618;2022-12-10T13:03:35;93045.47;;;10.84;36.77
70902;BME280;58548;47.210;8.618;2022-12-10T13:06:26;93058.34;;;10.85;37.10
70902;BME280;58548;47.210;8.618;2022-12-10T13:08:53;93062.75;;;10.85;36.55
70902;BME280;58548;47.210;8.618;2022-12-10T13:11:30;93057.31;;;10.86;36.72
70902;BME280;58548;47.210;8.618;2022-12-10T13:46:26;93094.00;;;10.73;37.36
70902;BME280;58548;47.210;8.618;2022-12-10T13:48:58;93025.31;;;10.22;37.34
70902;BME280;58548;47.210;8.618;2022-12-10T13:51:26;93107.69;;;10.68;37.30
70902;BME280;58548;47.210;8.618;2022-12-10T13:59:57;93122.50;;;10.49;37.52
70902;BME280;58548;47.210;8.618;2022-12-10T14:08:23;93114.53;;;10.44;37.32
70902;BME280;58548;47.210;8.618;2022-12-10T14:10:57;93115.53;;;10.43;37.72
70902;BME280;58548;47.210;8.618;2022-12-10T14:13:36;93114.53;;;10.44;37.67
70902;BME280;58548;47.210;8.618;2022-12-10T14:16:11;93101.47;;;10.44;37.06
70902;BME280;58548;47.210;8.618;2022-12-10T14:18:38;93113.72;;;10.44;37.52
70902;BME280;58548;47.210;8.618;2022-12-10T14:21:14;93053.75;;;10.05;37.44
70902;BME280;58548;47.210;8.618;2022-12-10T14:23:46;93121.38;;;10.38;38.25
70902;BME280;58548;47.210;8.618;2022-12-10T14:26:19;93145.44;;;10.47;37.43
70902;BME280;58548;47.210;8.618;2022-12-10T14:28:58;93101.41;;;10.19;37.26
70902;BME280;58548;47.210;8.618;2022-12-10T14:31:38;93128.31;;;10.19;37.34
70902;BME280;58548;47.210;8.618;2022-12-10T14:34:21;93155.50;;;10.37;37.88
70902;BME280;58548;47.210;8.618;2022-12-10T14:36:52;93142.13;;;10.26;37.88
70902;BME280;58548;47.210;8.618;2022-12-10T14:39:24;93161.13;;;10.34;37.31
70902;BME280;58548;47.210;8.618;2022-12-10T14:41:56;93130.38;;;10.10;37.54
70902;BME280;58548;47.210;8.618;2022-12-10T14:44:26;93105.53;;;10.01;38.04
70902;BME280;58548;47.210;8.618;2022-12-10T14:47:04;93152.56;;;10.26;38.32
70902;BME280;58548;47.210;8.618;2022-12-10T14:49:31;93102.00;;;9.89;37.80
70902;BME280;58548;47.210;8.618;2022-12-10T14:51:57;93158.38;;;10.22;37.76
70902;BME280;58548;47.210;8.618;2022-12-10T14:54:32;93130.78;;;10.07;37.86
70902;BME280;58548;47.210;8.618;2022-12-10T14:57:03;93174.47;;;10.19;37.85
70902;BME280;58548;47.210;8.618;2022-12-10T15:02:28;93180.06;;;10.22;38.07
70902;BME280;58548;47.210;8.618;2022-12-10T15:04:58;93124.06;;;9.93;38.27
70902;BME280;58548;47.210;8.618;2022-12-10T15:07:30;93148.44;;;10.05;37.89
70902;BME280;58548;47.210;8.618;2022-12-10T15:10:08;93164.47;;;10.16;37.31
70902;BME280;58548;47.210;8.618;2022-12-10T15:12:45;93139.09;;;9.91;38.00
70902;BME280;58548;47.210;8.618;2022-12-10T15:15:29;93190.72;;;10.21;37.98
70902;BME280;58548;47.210;8.618;2022-12-10T15:20:53;93200.13;;;10.22;37.46
70902;BME280;58548;47.210;8.618;2022-12-10T15:23:40;93168.72;;;10.03;37.78
70902;BME280;58548;47.210;8.618;2022-12-10T15:26:28;93136.38;;;9.72;37.97
70902;BME280;58548;47.210;8.618;2022-12-10T15:31:59;93178.22;;;9.91;37.90
70902;BME280;58548;47.210;8.618;2022-12-10T15:34:28;93198.44;;;10.02;37.74
70902;BME280;58548;47.210;8.618;2022-12-10T15:37:02;93190.41;;;9.97;38.04
70902;BME280;58548;47.210;8.618;2022-12-10T15:39:32;93203.66;;;10.02;38.07
70902;BME280;58548;47.210;8.618;2022-12-10T15:42:04;93193.84;;;9.98;37.92
70902;BME280;58548;47.210;8.618;2022-12-10T15:49:24;93169.84;;;9.75;38.08
70902;BME280;58548;47.210;8.618;2022-12-10T15:51:50;93199.66;;;10.00;37.87
70902;BME280;58548;47.210;8.618;2022-12-10T15:54:20;93201.88;;;9.89;37.89
70902;BME280;58548;47.210;8.618;2022-12-10T15:56:46;93150.66;;;9.63;37.95
70902;BME280;58548;47.210;8.618;2022-12-10T15:59:15;93209.88;;;10.01;37.46
70902;BME280;58548;47.210;8.618;2022-12-10T16:01:40;93150.63;;;9.70;37.58
70902;BME280;58548;47.210;8.618;2022-12-10T16:04:06;93204.31;;;9.91;38.22
70902;BME280;58548;47.210;8.618;2022-12-10T16:06:32;93205.09;;;9.91;37.88
70902;BME280;58548;47.210;8.618;2022-12-10T16:08:58;93182.31;;;9.66;38.27